Time;durP1;ratioP1;P1;durP2;ratioP2;P2;SDS_P1;SDS_P2;PMS_P1;PMS_P2;Temp;Humidity;BMP_temperature;BMP_pressure;BME280_temperature;BME280_humidity;BME280_pressure;Samples;Min_cycle;Max_cycle;Signal;HPM_P1;HPM_P2
2023/03/16 00:01:12;;;;;;;2.87;2.20;;;0.80;99.90;;;;;;5051742;28;20890;-70
2023/03/16 00:03:38;;;;;;;3.33;1.87;;;0.70;99.90;;;;;;5049805;28;20199;-71
2023/03/16 00:06:06;;;;;;;5.53;2.37;;;0.70;99.90;;;;;;5051491;28;20490;-72
2023/03/16 00:08:32;;;;;;;4.73;2.33;;;0.70;99.90;;;;;;5051351;28;20421;-69
2023/03/16 00:10:58;;;;;;;4.40;1.70;;;0.70;99.90;;;;;;5033542;28;20487;-72
2023/03/16 00:13:24;;;;;;;1.37;1.20;;;0.70;99.90;;;;;;5049280;28;20187;-71
2023/03/16 00:15:50;;;;;;;5.10;2.27;;;0.80;99.90;;;;;;5051322;28;20250;-71
2023/03/16 00:18:16;;;;;;;2.43;2.23;;;0.90;99.90;;;;;;5033251;28;20460;-70
2023/03/16 00:20:42;;;;;;;5.03;2.33;;;0.90;99.90;;;;;;5051022;28;20417;-71
2023/03/16 00:23:07;;;;;;;2.60;2.40;;;0.80;99.90;;;;;;5051290;28;20197;-70
2023/03/16 00:25:33;;;;;;;2.20;1.67;;;1.00;99.90;;;;;;5051409;28;20201;-70
2023/03/16 00:28:02;;;;;;;2.03;1.80;;;0.90;99.90;;;;;;5051012;28;20203;-69
2023/03/16 00:30:31;;;;;;;6.63;2.17;;;0.80;99.90;;;;;;5050899;28;20416;-69
2023/03/16 00:32:57;;;;;;;4.33;2.20;;;0.70;99.90;;;;;;5051316;28;20420;-70
2023/03/16 00:35:23;;;;;;;2.80;1.63;;;0.80;99.90;;;;;;5051048;28;20413;-72
2023/03/16 00:37:49;;;;;;;3.13;1.53;;;0.80;99.90;;;;;;5050839;28;20444;-69
2023/03/16 00:40:15;;;;;;;2.90;2.07;;;0.80;99.90;;;;;;5033401;28;20410;-69
2023/03/16 00:42:41;;;;;;;1.87;1.73;;;0.80;99.90;;;;;;5051223;28;20413;-70
2023/03/16 00:45:08;;;;;;;4.73;2.17;;;0.90;99.90;;;;;;5051038;28;20413;-70
2023/03/16 00:47:34;;;;;;;1.87;1.47;;;0.80;99.90;;;;;;5051314;28;20295;-70
2023/03/16 00:50:00;;;;;;;2.30;1.47;;;0.90;99.90;;;;;;5051139;28;20973;-70
2023/03/16 00:52:27;;;;;;;1.63;1.53;;;0.80;99.90;;;;;;5051011;28;20943;-70
2023/03/16 00:54:54;;;;;;;4.77;2.50;;;0.80;99.90;;;;;;5033190;28;20467;-70
2023/03/16 00:57:21;;;;;;;2.97;1.37;;;0.80;99.90;;;;;;5050743;28;20433;-71
2023/03/16 00:59:48;;;;;;;5.93;1.77;;;0.60;99.90;;;;;;5051105;28;20432;-72
2023/03/16 01:02:15;;;;;;;2.67;1.60;;;0.60;99.90;;;;;;5054064;28;20467;-70
2023/03/16 01:04:41;;;;;;;6.30;2.63;;;0.80;99.90;;;;;;5054498;28;20440;-71
2023/03/16 01:07:11;;;;;;;4.67;2.10;;;0.80;99.90;;;;;;5054490;28;20875;-71
2023/03/16 01:09:37;;;;;;;3.13;1.97;;;0.70;99.90;;;;;;5055044;28;20416;-72
2023/03/16 01:12:05;;;;;;;3.13;1.80;;;0.70;99.90;;;;;;5053132;28;20591;-71
2023/03/16 01:14:33;;;;;;;3.63;1.50;;;0.60;99.90;;;;;;5054327;28;20418;-71
2023/03/16 01:17:00;;;;;;;3.27;1.87;;;0.70;99.90;;;;;;5054035;28;20449;-72
2023/03/16 01:19:26;;;;;;;1.67;1.57;;;0.80;99.90;;;;;;5036642;28;20464;-71
2023/03/16 01:21:52;;;;;;;3.53;1.53;;;0.80;99.90;;;;;;5054800;28;20418;-70
2023/03/16 01:24:18;;;;;;;5.30;2.50;;;0.60;99.90;;;;;;5046301;28;20776;-68
2023/03/16 01:26:43;;;;;;;3.10;1.80;;;0.60;99.90;;;;;;5046817;28;20440;-71
2023/03/16 01:29:11;;;;;;;2.03;1.80;;;0.60;99.90;;;;;;5054624;28;20179;-71
2023/03/16 01:31:36;;;;;;;2.77;2.53;;;0.50;99.90;;;;;;5033592;28;20669;-70
2023/03/16 01:34:02;;;;;;;1.87;1.70;;;0.60;99.90;;;;;;5051510;28;20417;-71
2023/03/16 01:36:28;;;;;;;1.67;1.57;;;0.60;99.90;;;;;;5055862;28;20198;-71
2023/03/16 01:38:54;;;;;;;3.80;2.70;;;0.60;99.90;;;;;;5053745;28;20782;-70
2023/03/16 01:41:20;;;;;;;2.30;1.73;;;0.60;99.90;;;;;;5053678;28;20633;-71
2023/03/16 01:43:46;;;;;;;7.50;2.40;;;0.60;99.90;;;;;;5053797;28;20266;-70
2023/03/16 01:46:22;;;;;;;3.90;1.97;;;0.60;99.90;;;;;;5053314;28;20417;-70
2023/03/16 01:48:59;;;;;;;6.10;2.33;;;0.40;99.90;;;;;;5041980;28;20424;-70
2023/03/16 01:52:02;;;;;;;3.87;1.53;;;0.40;99.90;;;;;;5043734;28;20943;-70
2023/03/16 01:54:33;;;;;;;4.03;1.50;;;0.70;99.90;;;;;;5049290;28;20428;-69
2023/03/16 01:57:04;;;;;;;2.93;2.30;;;0.60;99.90;;;;;;5053365;28;20994;-70
2023/03/16 01:59:34;;;;;;;2.23;2.03;;;0.70;99.90;;;;;;5053410;28;20500;-70
2023/03/16 02:02:01;;;;;;;3.57;1.97;;;0.50;99.90;;;;;;5053523;28;20409;-70
2023/03/16 02:04:45;;;;;;;2.40;1.93;;;0.50;99.90;;;;;;5053318;28;20421;-70
2023/03/16 02:07:15;;;;;;;4.90;2.50;;;0.50;99.90;;;;;;5049183;28;20862;-70
2023/03/16 02:09:47;;;;;;;3.93;2.70;;;0.40;99.90;;;;;;5053272;28;20488;-71
2023/03/16 02:12:17;;;;;;;3.80;2.30;;;0.30;99.90;;;;;;5036063;28;20871;-71
2023/03/16 02:14:48;;;;;;;4.80;2.60;;;0.30;99.90;;;;;;5047438;28;20903;-71
2023/03/16 02:17:20;;;;;;;4.17;2.30;;;0.20;99.90;;;;;;5054277;28;20449;-70
2023/03/16 02:20:17;;;;;;;4.70;2.77;;;0.20;99.90;;;;;;5047198;28;20406;-70
2023/03/16 02:22:47;;;;;;;2.90;2.20;;;0.20;99.90;;;;;;5026951;28;20428;-71
2023/03/16 02:25:16;;;;;;;2.30;1.97;;;0.10;99.90;;;;;;5052662;28;20409;-70
2023/03/16 02:27:54;;;;;;;4.40;2.53;;;0.10;99.90;;;;;;5044399;28;20444;-71
2023/03/16 02:30:20;;;;;;;4.43;1.83;;;0.10;99.90;;;;;;5052564;28;20479;-68
2023/03/16 02:32:50;;;;;;;3.10;1.80;;;0.10;99.90;;;;;;5051681;28;20819;-68
2023/03/16 02:35:16;;;;;;;3.60;1.80;;;0.10;99.90;;;;;;5052720;28;20409;-69
2023/03/16 02:37:42;;;;;;;2.00;1.70;;;0.10;99.90;;;;;;5052651;28;20437;-70
2023/03/16 02:40:20;;;;;;;2.03;1.80;;;0.10;99.90;;;;;;5052621;28;20762;-71
2023/03/16 02:42:53;;;;;;;3.10;2.30;;;0.10;99.90;;;;;;5044828;28;20417;-69
2023/03/16 02:45:20;;;;;;;5.47;2.70;;;0.10;99.90;;;;;;5052548;28;20405;-70
2023/03/16 02:47:50;;;;;;;2.70;2.13;;;0.10;99.90;;;;;;5052455;28;20441;-70
2023/03/16 02:50:16;;;;;;;2.33;1.57;;;0.00;99.90;;;;;;5052929;28;20919;-70
2023/03/16 02:52:41;;;;;;;7.07;1.90;;;-0.10;99.90;;;;;;5052644;28;20456;-70
2023/03/16 02:55:08;;;;;;;4.20;1.77;;;0.00;99.90;;;;;;5056127;28;20995;-70
2023/03/16 02:57:33;;;;;;;3.00;1.87;;;0.00;99.90;;;;;;5052868;28;20195;-70
2023/03/16 03:00:00;;;;;;;3.00;1.60;;;0.00;99.90;;;;;;5052753;28;20840;-69
2023/03/16 03:02:26;;;;;;;2.97;1.57;;;0.00;99.90;;;;;;5052503;28;20412;-67
2023/03/16 03:04:53;;;;;;;5.47;2.03;;;-0.10;99.90;;;;;;5052559;28;20409;-70
2023/03/16 03:07:20;;;;;;;5.40;2.20;;;0.00;99.90;;;;;;5052245;28;20437;-70
2023/03/16 03:09:46;;;;;;;5.50;2.03;;;-0.10;99.90;;;;;;5052334;28;20941;-69
2023/03/16 03:12:12;;;;;;;4.67;1.93;;;-0.10;99.90;;;;;;5052424;28;20491;-69
2023/03/16 03:14:38;;;;;;;3.13;1.53;;;0.00;99.90;;;;;;5052156;28;21148;-70
2023/03/16 03:17:06;;;;;;;3.10;2.70;;;-0.10;99.90;;;;;;5052257;28;20457;-70
2023/03/16 03:19:35;;;;;;;2.20;1.50;;;-0.10;99.90;;;;;;5052201;28;20413;-72
2023/03/16 03:22:03;;;;;;;1.93;1.60;;;-0.20;99.90;;;;;;5052269;28;20420;-71
2023/03/16 03:24:30;;;;;;;4.60;2.00;;;-0.20;99.90;;;;;;5023736;28;20548;-71
2023/03/16 03:26:56;;;;;;;2.03;1.50;;;-0.10;99.90;;;;;;5047685;28;20468;-69
2023/03/16 03:29:21;;;;;;;3.70;1.97;;;-0.20;99.90;;;;;;5052034;28;20779;-71
2023/03/16 03:31:47;;;;;;;5.47;2.33;;;-0.10;99.90;;;;;;5051824;28;20260;-71
2023/03/16 03:34:13;;;;;;;4.10;1.50;;;-0.10;99.90;;;;;;5057488;28;20589;-69
2023/03/16 03:36:38;;;;;;;3.90;3.70;;;-0.20;99.90;;;;;;5072087;22;20696;-69
2023/03/16 03:39:04;;;;;;;4.70;2.13;;;-0.20;99.90;;;;;;5050329;28;20625;-69
2023/03/16 03:41:31;;;;;;;4.50;3.00;;;-0.20;99.90;;;;;;5049851;28;20174;-68
2023/03/16 03:43:58;;;;;;;2.17;1.80;;;-0.20;99.90;;;;;;5057465;28;20301;-68
2023/03/16 03:46:25;;;;;;;1.80;1.70;;;-0.30;99.90;;;;;;5049404;28;20417;-69
2023/03/16 03:48:50;;;;;;;3.37;1.90;;;-0.30;99.90;;;;;;5049541;28;20498;-68
2023/03/16 03:51:16;;;;;;;2.00;1.87;;;-0.20;99.90;;;;;;5049902;28;20460;-68
2023/03/16 03:53:41;;;;;;;2.00;1.50;;;-0.20;99.90;;;;;;5049722;28;20171;-68
2023/03/16 03:56:08;;;;;;;1.60;1.50;;;-0.20;99.90;;;;;;5049562;28;20194;-68
2023/03/16 03:58:33;;;;;;;3.70;1.87;;;-0.30;99.90;;;;;;5054622;28;20170;-69
2023/03/16 04:00:59;;;;;;;8.07;3.17;;;-0.30;99.90;;;;;;5057244;28;20423;-69
2023/03/16 04:03:25;;;;;;;4.10;2.00;;;-0.30;99.90;;;;;;5049362;28;20565;-69
2023/03/16 04:05:50;;;;;;;2.60;2.40;;;-0.20;99.90;;;;;;5049708;28;20429;-68
2023/03/16 04:08:16;;;;;;;3.60;1.93;;;-0.30;99.90;;;;;;5055006;28;20393;-68
2023/03/16 04:10:42;;;;;;;4.90;2.97;;;-0.30;99.90;;;;;;5049297;28;20258;-68
2023/03/16 04:13:07;;;;;;;5.37;1.97;;;-0.30;99.90;;;;;;5058076;28;20167;-68
2023/03/16 04:15:34;;;;;;;3.37;2.00;;;-0.40;99.90;;;;;;5050604;28;20197;-69
2023/03/16 04:18:00;;;;;;;1.90;1.80;;;-0.30;99.90;;;;;;5055264;28;20178;-68
2023/03/16 04:20:28;;;;;;;3.77;3.00;;;-0.30;99.90;;;;;;5054417;28;20501;-68
2023/03/16 04:22:57;;;;;;;4.13;3.47;;;-0.30;99.90;;;;;;5053614;28;21030;-68
2023/03/16 04:25:25;;;;;;;2.13;1.90;;;-0.30;99.90;;;;;;5034481;28;20931;-69
2023/03/16 04:27:51;;;;;;;6.93;3.00;;;-0.40;99.90;;;;;;5049454;28;20508;-68
2023/03/16 04:30:17;;;;;;;5.40;2.63;;;-0.40;99.90;;;;;;5057441;28;20432;-68
2023/03/16 04:32:42;;;;;;;2.57;1.67;;;-0.40;99.90;;;;;;5049390;28;20537;-68
2023/03/16 04:35:09;;;;;;;3.13;2.00;;;-0.30;99.90;;;;;;5056428;28;20171;-69
2023/03/16 04:37:35;;;;;;;18.03;2.17;;;-0.30;99.90;;;;;;5053216;28;20167;-68
2023/03/16 04:40:08;;;;;;;2.10;1.90;;;-0.40;99.90;;;;;;5059926;28;20409;-68
2023/03/16 04:42:34;;;;;;;3.63;2.10;;;-0.30;99.90;;;;;;5057039;28;20404;-68
2023/03/16 04:45:00;;;;;;;2.00;1.80;;;-0.40;99.90;;;;;;5054064;28;20425;-68
2023/03/16 04:47:26;;;;;;;4.87;2.70;;;-0.40;99.90;;;;;;5053753;28;20432;-68
2023/03/16 04:49:51;;;;;;;2.60;1.70;;;-0.30;99.90;;;;;;5056500;28;20171;-69
2023/03/16 04:52:17;;;;;;;3.80;1.60;;;-0.30;99.90;;;;;;5053151;28;20199;-68
2023/03/16 04:54:42;;;;;;;1.87;1.77;;;-0.40;99.90;;;;;;5052703;28;20642;-68
2023/03/16 04:57:08;;;;;;;3.07;1.80;;;-0.30;99.90;;;;;;5034846;28;20191;-68
2023/03/16 04:59:33;;;;;;;8.47;2.27;;;-0.40;99.90;;;;;;5052722;28;20175;-69
2023/03/16 05:01:59;;;;;;;2.10;1.80;;;-0.30;99.90;;;;;;5057096;28;20270;-69
2023/03/16 05:04:24;;;;;;;3.60;1.77;;;-0.40;99.90;;;;;;5053587;28;20209;-69
2023/03/16 05:06:50;;;;;;;2.17;1.80;;;-0.50;99.90;;;;;;5052670;28;20202;-68
2023/03/16 05:09:16;;;;;;;1.40;1.30;;;-0.50;99.90;;;;;;5058805;28;20225;-69
2023/03/16 05:11:41;;;;;;;3.60;1.73;;;-0.50;99.90;;;;;;5052620;28;20244;-69
2023/03/16 05:14:07;;;;;;;2.50;1.70;;;-0.50;99.90;;;;;;5052673;28;20167;-68
2023/03/16 05:16:33;;;;;;;1.40;1.30;;;-0.50;99.90;;;;;;5052546;28;20199;-68
2023/03/16 05:19:00;;;;;;;3.60;1.50;;;-0.50;99.90;;;;;;5052659;28;20588;-69
2023/03/16 05:21:25;;;;;;;2.27;1.90;;;-0.40;99.90;;;;;;5059019;28;20417;-68
2023/03/16 05:23:51;;;;;;;4.80;2.30;;;-0.50;99.90;;;;;;5052204;28;20405;-70
2023/03/16 05:26:17;;;;;;;2.53;2.37;;;-0.40;99.90;;;;;;5058477;28;20190;-69
2023/03/16 05:28:44;;;;;;;3.40;2.00;;;-0.40;99.90;;;;;;5055003;28;20783;-68
2023/03/16 05:31:10;;;;;;;1.47;1.37;;;-0.40;99.90;;;;;;5057668;28;20464;-69
2023/03/16 05:33:36;;;;;;;2.17;2.07;;;-0.40;99.90;;;;;;5041826;28;20506;-69
2023/03/16 05:36:01;;;;;;;1.70;1.60;;;-0.30;99.90;;;;;;5052085;28;20453;-69
2023/03/16 05:38:28;;;;;;;4.10;2.20;;;-0.30;99.90;;;;;;5058797;28;20431;-69
2023/03/16 05:40:54;;;;;;;6.23;2.93;;;-0.30;99.90;;;;;;5055740;28;20167;-68
2023/03/16 05:43:20;;;;;;;4.67;1.77;;;-0.30;99.90;;;;;;5058028;28;20405;-68
2023/03/16 05:59:14;;;;;;;2.17;1.80;;;-0.10;99.90;;;;;;5047203;28;20389;-68
2023/03/16 06:01:41;;;;;;;2.30;1.90;;;-0.10;99.90;;;;;;5051534;28;20927;-69
2023/03/16 06:04:06;;;;;;;2.20;1.83;;;0.00;99.90;;;;;;5052428;28;20441;-69
2023/03/16 06:06:32;;;;;;;5.40;2.70;;;0.00;99.90;;;;;;5056717;28;20485;-68
2023/03/16 06:08:57;;;;;;;5.13;2.53;;;0.10;99.90;;;;;;5052088;28;20175;-69
2023/03/16 06:11:23;;;;;;;2.60;2.30;;;0.20;99.90;;;;;;5051113;28;20226;-68
2023/03/16 06:13:48;;;;;;;4.93;2.93;;;0.20;99.90;;;;;;5055845;28;20190;-69
2023/03/16 06:16:15;;;;;;;3.43;1.93;;;0.40;99.90;;;;;;5050423;28;20672;-69
2023/03/16 06:18:41;;;;;;;3.50;2.00;;;0.90;99.90;;;;;;5050562;28;20167;-67
2023/03/16 06:21:07;;;;;;;3.83;2.17;;;1.60;99.90;;;;;;5050442;28;20504;-68
2023/03/16 06:23:32;;;;;;;2.70;2.40;;;1.90;99.90;;;;;;5050209;28;20225;-68
2023/03/16 06:25:59;;;;;;;3.33;2.33;;;2.40;99.90;;;;;;5051340;28;20441;-70
2023/03/16 06:28:25;;;;;;;5.73;2.00;;;3.00;99.90;;;;;;5051049;28;20171;-67
2023/03/16 06:30:55;;;;;;;2.63;1.80;;;4.00;99.90;;;;;;5056137;28;20974;-67
2023/03/16 06:33:21;;;;;;;5.13;2.87;;;4.40;99.90;;;;;;5050651;28;20496;-68
2023/03/16 06:35:50;;;;;;;2.40;1.83;;;4.50;99.90;;;;;;5054888;28;20530;-69
2023/03/16 06:38:17;;;;;;;1.97;1.70;;;4.40;99.90;;;;;;5050897;28;20176;-68
2023/03/16 06:40:43;;;;;;;3.90;1.87;;;4.30;99.90;;;;;;5054008;28;20414;-68
2023/03/16 06:43:08;;;;;;;4.73;2.10;;;4.50;99.90;;;;;;5050485;28;20436;-68
2023/03/16 06:45:34;;;;;;;4.40;2.07;;;4.90;99.90;;;;;;5051008;28;20915;-68
2023/03/16 06:48:00;;;;;;;5.30;2.67;;;5.50;99.90;;;;;;5057865;28;20221;-69
2023/03/16 06:50:26;;;;;;;5.13;3.17;;;5.80;99.90;;;;;;5050503;28;20959;-68
2023/03/16 06:52:52;;;;;;;3.63;2.63;;;6.00;99.90;;;;;;5050443;28;20547;-69
2023/03/16 06:55:17;;;;;;;3.63;2.10;;;6.10;99.90;;;;;;5051485;28;20433;-70
2023/03/16 06:57:43;;;;;;;8.07;3.37;;;6.20;99.90;;;;;;5040320;28;20174;-70
2023/03/16 07:00:12;;;;;;;8.53;4.10;;;6.50;99.90;;;;;;5037279;28;20545;-69
2023/03/16 07:02:39;;;;;;;5.50;4.87;;;6.60;99.90;;;;;;5050353;28;20182;-68
2023/03/16 07:05:06;;;;;;;8.40;4.90;;;6.90;99.90;;;;;;5051171;28;20417;-68
2023/03/16 07:07:32;;;;;;;6.30;4.60;;;7.20;99.90;;;;;;5050151;28;20406;-70
2023/03/16 07:09:58;;;;;;;6.00;4.63;;;7.20;99.90;;;;;;5050340;28;20405;-69
2023/03/16 07:12:24;;;;;;;3.63;3.23;;;6.70;99.90;;;;;;5052637;28;20548;-69
2023/03/16 07:14:50;;;;;;;4.03;2.43;;;6.50;99.90;;;;;;5055400;28;20175;-69
2023/03/16 07:17:15;;;;;;;5.50;2.30;;;6.50;99.90;;;;;;5050083;28;20186;-69
2023/03/16 07:19:42;;;;;;;7.97;4.17;;;6.70;99.90;;;;;;5054386;28;20436;-70
2023/03/16 07:22:08;;;;;;;3.93;2.87;;;7.10;99.90;;;;;;5050134;28;20406;-69
2023/03/16 07:24:34;;;;;;;6.00;2.87;;;7.30;99.90;;;;;;5049857;28;20770;-69
2023/03/16 07:27:00;;;;;;;4.60;3.07;;;7.20;99.90;;;;;;5049960;28;20285;-69
2023/03/16 07:29:26;;;;;;;6.00;2.40;;;7.50;99.90;;;;;;5049818;28;20268;-70
2023/03/16 07:31:53;;;;;;;6.10;2.77;;;7.70;99.90;;;;;;5054978;28;20461;-67
2023/03/16 07:34:18;;;;;;;3.90;2.23;;;8.20;99.90;;;;;;5049894;28;20773;-68
2023/03/16 07:36:47;;;;;;;3.50;3.20;;;7.70;99.90;;;;;;5055934;28;20525;-68
2023/03/16 07:39:13;;;;;;;6.10;2.70;;;9.20;99.90;;;;;;5054842;28;20169;-72
2023/03/16 07:41:40;;;;;;;3.30;3.00;;;9.60;99.90;;;;;;5052885;28;20427;-72
2023/03/16 07:44:06;;;;;;;9.53;6.30;;;8.80;99.90;;;;;;5049776;28;20179;-71
2023/03/16 07:46:31;;;;;;;5.53;3.83;;;9.80;99.90;;;;;;5048135;28;20534;-68
2023/03/16 07:48:57;;;;;;;6.00;3.70;;;9.00;99.90;;;;;;5050125;28;20193;-68
2023/03/16 07:51:23;;;;;;;6.57;2.70;;;8.70;99.90;;;;;;5057026;28;20187;-68
2023/03/16 07:53:48;;;;;;;4.83;3.50;;;8.30;99.90;;;;;;5049284;28;20176;-68
2023/03/16 07:56:14;;;;;;;8.07;3.50;;;9.30;99.90;;;;;;5051734;28;20196;-68
2023/03/16 07:58:40;;;;;;;5.67;3.37;;;9.00;99.90;;;;;;5057231;28;20180;-68
2023/03/16 08:01:08;;;;;;;5.20;3.03;;;8.50;99.90;;;;;;5049128;28;20175;-68
2023/03/16 08:03:33;;;;;;;11.93;4.53;;;8.90;99.90;;;;;;5055136;28;20424;-68
2023/03/16 08:05:59;;;;;;;7.17;3.37;;;8.70;99.90;;;;;;5049045;28;20512;-69
2023/03/16 08:08:25;;;;;;;9.70;5.47;;;9.20;99.90;;;;;;5049164;28;20160;-69
2023/03/16 08:10:51;;;;;;;17.73;6.67;;;9.30;99.90;;;;;;5050322;28;20536;-69
2023/03/16 08:13:17;;;;;;;18.60;6.90;;;9.60;99.90;;;;;;5058384;28;20245;-69
2023/03/16 08:16:00;;;;;;;13.40;6.10;;;9.00;99.90;;;;;;5053903;28;20522;-68
2023/03/16 08:18:29;;;;;;;5.00;3.50;;;8.80;99.90;;;;;;5056964;28;20414;-68
2023/03/16 08:20:56;;;;;;;9.20;2.90;;;9.00;99.90;;;;;;5064065;28;20439;-69
2023/03/16 08:23:23;;;;;;;3.90;1.43;;;9.40;99.90;;;;;;5056713;28;20401;-68
2023/03/16 08:25:53;;;;;;;2.87;1.70;;;9.50;99.90;;;;;;5059333;28;20429;-68
2023/03/16 08:28:20;;;;;;;4.33;2.10;;;9.80;99.90;;;;;;5053480;28;20408;-71
2023/03/16 08:30:51;;;;;;;5.07;1.90;;;10.60;99.90;;;;;;5052796;28;20410;-69
2023/03/16 08:33:17;;;;;;;3.37;1.63;;;10.10;99.90;;;;;;5053541;28;20848;-70
2023/03/16 08:35:43;;;;;;;5.17;2.30;;;10.10;99.90;;;;;;5052638;28;20754;-70
2023/03/16 08:38:10;;;;;;;3.90;1.63;;;10.30;99.90;;;;;;5059536;28;20410;-69
2023/03/16 08:40:35;;;;;;;7.83;2.23;;;10.20;99.90;;;;;;5056352;28;20467;-68
2023/03/16 08:43:02;;;;;;;6.70;2.13;;;10.90;99.90;;;;;;5057303;28;20413;-70
2023/03/16 08:45:28;;;;;;;2.97;1.83;;;12.00;99.90;;;;;;5055518;28;20189;-70
2023/03/16 08:47:54;;;;;;;5.30;2.60;;;12.60;99.90;;;;;;5045733;28;20415;-69
2023/03/16 08:50:19;;;;;;;5.07;2.17;;;13.70;99.90;;;;;;5057011;28;20560;-68
2023/03/16 08:52:47;;;;;;;4.63;1.30;;;14.00;97.20;;;;;;5057259;28;20250;-68
2023/03/16 08:55:14;;;;;;;3.60;1.90;;;14.20;95.50;;;;;;5052502;28;20624;-68
2023/03/16 08:57:40;;;;;;;3.70;2.00;;;12.60;95.30;;;;;;5052605;28;20947;-69
2023/03/16 09:00:12;;;;;;;2.20;1.60;;;13.40;96.80;;;;;;5055234;28;20399;-68
2023/03/16 09:02:39;;;;;;;4.10;1.80;;;14.50;96.30;;;;;;5038901;28;20430;-68
2023/03/16 09:05:07;;;;;;;2.00;1.80;;;13.70;93.60;;;;;;5056323;28;20414;-68
2023/03/16 09:07:35;;;;;;;1.70;1.47;;;13.50;94.00;;;;;;5052892;28;20589;-74
2023/03/16 09:10:04;;;;;;;4.23;1.57;;;10.70;93.60;;;;;;5053461;28;20575;-75
2023/03/16 09:12:31;;;;;;;2.50;1.43;;;10.30;96.50;;;;;;5060646;28;20837;-75
2023/03/16 09:14:57;;;;;;;4.40;1.57;;;11.10;96.70;;;;;;5053269;28;20786;-74
2023/03/16 09:17:23;;;;;;;5.67;1.50;;;11.50;94.90;;;;;;5061057;28;20984;-77
2023/03/16 09:19:48;;;;;;;4.80;2.03;;;11.00;96.10;;;;;;5061219;28;20409;-78
2023/03/16 09:22:14;;;;;;;4.50;1.47;;;10.80;93.80;;;;;;5055597;28;20181;-76
2023/03/16 09:24:40;;;;;;;1.63;1.30;;;11.30;94.40;;;;;;5060180;28;20185;-76
2023/03/16 09:27:06;;;;;;;2.97;1.63;;;11.50;95.80;;;;;;5054621;28;20210;-76
2023/03/16 09:29:32;;;;;;;1.63;1.10;;;11.40;94.40;;;;;;5060446;28;20410;-76
2023/03/16 09:31:58;;;;;;;3.40;1.20;;;11.20;93.50;;;;;;5053944;28;20286;-76
2023/03/16 09:34:23;;;;;;;3.00;1.40;;;11.00;92.40;;;;;;5054208;28;20430;-75
2023/03/16 09:36:49;;;;;;;5.07;1.30;;;10.70;94.50;;;;;;5055163;28;20531;-75
2023/03/16 09:39:14;;;;;;;5.30;1.00;;;10.50;93.90;;;;;;5055777;28;20179;-74
2023/03/16 09:41:47;;;;;;;3.03;1.33;;;10.90;93.40;;;;;;5057047;28;20255;-75
2023/03/16 09:44:28;;;;;;;3.83;1.97;;;10.90;94.00;;;;;;5056251;28;20166;-74
2023/03/16 09:46:58;;;;;;;4.13;1.20;;;11.70;94.10;;;;;;5062219;28;20437;-75
2023/03/16 09:49:30;;;;;;;3.60;1.10;;;10.80;92.20;;;;;;5041525;28;20416;-75
2023/03/16 09:52:29;;;;;;;2.47;1.40;;;10.20;91.70;;;;;;5060873;28;20792;-75
2023/03/16 09:55:01;;;;;;;6.20;1.53;;;10.00;92.60;;;;;;5051401;28;20531;-76
2023/03/16 09:57:33;;;;;;;8.73;1.50;;;10.00;92.40;;;;;;5053287;28;21080;-75
2023/03/16 10:00:18;;;;;;;2.60;1.67;;;10.00;94.30;;;;;;5058464;28;20418;-75
2023/03/16 10:02:53;;;;;;;8.77;1.67;;;9.90;93.00;;;;;;5074897;22;20896;-69
2023/03/16 10:05:23;;;;;;;4.27;2.40;;;9.30;93.60;;;;;;5053437;28;20401;-69
2023/03/16 10:08:14;;;;;;;3.53;1.77;;;9.10;93.80;;;;;;5045823;28;20483;-69
2023/03/16 10:11:17;;;;;;;1.80;1.00;;;9.20;92.90;;;;;;5036959;28;20406;-68
2023/03/16 10:14:01;;;;;;;3.00;1.20;;;9.30;92.60;;;;;;5061469;28;20826;-69
2023/03/16 10:16:53;;;;;;;2.33;1.30;;;9.00;91.80;;;;;;5061349;28;20433;-69
2023/03/16 10:19:31;;;;;;;1.20;1.10;;;8.80;92.20;;;;;;5062909;28;20404;-70
2023/03/16 10:22:01;;;;;;;2.00;0.90;;;8.60;92.10;;;;;;5060950;28;20898;-69
2023/03/16 10:24:47;;;;;;;2.27;1.67;;;8.40;90.80;;;;;;5053951;28;20415;-69
2023/03/16 10:27:26;;;;;;;2.57;1.20;;;8.60;91.00;;;;;;5049029;28;20429;-69
2023/03/16 10:29:55;;;;;;;1.10;1.00;;;8.60;90.40;;;;;;5052124;28;20431;-68
2023/03/16 10:32:23;;;;;;;2.70;1.40;;;8.50;90.90;;;;;;5055611;28;22529;-70
2023/03/16 10:34:57;;;;;;;2.47;1.50;;;8.50;91.10;;;;;;5053333;28;20763;-69
2023/03/16 10:37:23;;;;;;;3.17;1.20;;;8.80;91.00;;;;;;5056024;28;20419;-69
2023/03/16 10:39:49;;;;;;;3.87;1.50;;;8.90;90.20;;;;;;5052799;28;20413;-69
2023/03/16 10:42:20;;;;;;;1.83;1.10;;;8.70;91.30;;;;;;5058191;28;20414;-70
2023/03/16 10:44:46;;;;;;;2.37;1.30;;;8.70;91.80;;;;;;5045660;28;20220;-68
2023/03/16 10:47:26;;;;;;;2.40;1.47;;;8.40;90.10;;;;;;5057308;28;20821;-69
2023/03/16 10:49:52;;;;;;;2.57;1.17;;;8.40;91.60;;;;;;5045590;28;20498;-69
2023/03/16 10:52:23;;;;;;;5.23;1.50;;;8.50;90.20;;;;;;5052353;28;21053;-71
2023/03/16 10:54:58;;;;;;;1.73;1.10;;;8.80;90.20;;;;;;5045110;28;20187;-72
2023/03/16 10:57:32;;;;;;;2.60;1.50;;;8.70;88.90;;;;;;5038579;28;20411;-69
2023/03/16 11:00:26;;;;;;;3.13;1.43;;;8.90;90.20;;;;;;5052871;28;20425;-69
2023/03/16 11:02:54;;;;;;;2.50;1.87;;;8.80;90.10;;;;;;5016634;28;20457;-69
2023/03/16 11:05:29;;;;;;;1.90;1.40;;;8.70;90.00;;;;;;5063812;28;20489;-72
2023/03/16 11:08:08;;;;;;;3.00;1.40;;;8.90;90.80;;;;;;5049030;28;20414;-71
2023/03/16 11:10:36;;;;;;;5.80;1.80;;;8.80;88.60;;;;;;5035887;28;20530;-69
2023/03/16 11:13:13;;;;;;;2.40;1.10;;;8.60;85.60;;;;;;5046349;28;20458;-68
2023/03/16 11:15:52;;;;;;;1.13;1.00;;;8.50;87.80;;;;;;5054768;28;20412;-69
2023/03/16 11:18:44;;;;;;;3.37;1.80;;;8.60;85.90;;;;;;5051939;28;20399;-69
2023/03/16 11:21:21;;;;;;;2.23;1.20;;;8.70;86.90;;;;;;5049535;28;20778;-69
2023/03/16 11:23:53;;;;;;;2.83;1.33;;;8.70;82.70;;;;;;5057568;28;20425;-70
2023/03/16 11:26:32;;;;;;;2.70;2.10;;;8.80;87.00;;;;;;5061232;28;20410;-69
2023/03/16 11:29:22;;;;;;;6.73;1.60;;;8.70;88.60;;;;;;5050562;28;20415;-69
2023/03/16 11:31:56;;;;;;;7.30;1.63;;;8.90;88.80;;;;;;5047855;28;20457;-70
2023/03/16 11:34:27;;;;;;;4.97;1.27;;;8.90;88.70;;;;;;5037760;28;20427;-69
2023/03/16 11:37:00;;;;;;;1.60;1.50;;;8.80;89.40;;;;;;5024066;28;20954;-69
2023/03/16 11:39:55;;;;;;;3.97;1.30;;;9.00;86.20;;;;;;5057081;28;20480;-70
2023/03/16 11:42:38;;;;;;;1.97;1.20;;;9.10;84.70;;;;;;5054139;28;20434;-70
2023/03/16 11:45:09;;;;;;;1.73;0.90;;;9.00;87.20;;;;;;5056192;28;20414;-70
2023/03/16 11:47:57;;;;;;;3.37;1.00;;;9.10;87.40;;;;;;5038783;28;20436;-68
2023/03/16 11:50:35;;;;;;;2.63;1.23;;;9.20;89.20;;;;;;5059902;28;20502;-70
2023/03/16 11:53:08;;;;;;;1.53;1.30;;;9.10;87.00;;;;;;5063613;28;20486;-70
2023/03/16 11:56:12;;;;;;;5.60;1.30;;;9.10;86.30;;;;;;5053307;28;20405;-69
2023/03/16 11:59:05;;;;;;;2.37;1.30;;;9.10;84.30;;;;;;5063708;28;20422;-70
2023/03/16 12:01:50;;;;;;;2.50;1.10;;;9.20;86.30;;;;;;5048209;28;20423;-69
2023/03/16 12:04:35;;;;;;;2.67;1.30;;;9.10;86.00;;;;;;5047856;28;20470;-69
2023/03/16 12:07:27;;;;;;;1.30;1.20;;;9.00;84.70;;;;;;5036808;28;20945;-70
2023/03/16 12:09:53;;;;;;;7.13;1.63;;;8.90;84.30;;;;;;5030806;28;20823;-70
2023/03/16 12:12:18;;;;;;;1.97;1.20;;;9.00;87.20;;;;;;5052971;28;20540;-70
2023/03/16 12:15:15;;;;;;;5.30;1.60;;;9.00;86.50;;;;;;5051525;28;20194;-69
2023/03/16 12:17:42;;;;;;;1.87;1.10;;;9.10;84.50;;;;;;5051038;28;20203;-69
2023/03/16 12:20:20;;;;;;;2.23;1.93;;;9.20;80.00;;;;;;5051592;28;20439;-68
2023/03/16 12:22:53;;;;;;;4.13;1.30;;;9.10;81.40;;;;;;5050146;28;20429;-69
2023/03/16 12:25:23;;;;;;;3.00;1.03;;;9.00;80.60;;;;;;5056256;28;20483;-68
2023/03/16 12:27:54;;;;;;;2.83;1.10;;;9.00;79.50;;;;;;5050110;28;20414;-68
2023/03/16 12:30:20;;;;;;;1.77;1.00;;;9.30;79.40;;;;;;5051787;28;20920;-68
2023/03/16 12:32:59;;;;;;;5.47;1.57;;;9.50;77.60;;;;;;5054259;28;20526;-70
2023/03/16 12:35:42;;;;;;;4.93;1.50;;;9.60;75.10;;;;;;5052623;28;20176;-69
2023/03/16 12:38:10;;;;;;;1.23;1.13;;;9.30;73.30;;;;;;5056287;28;20450;-69
2023/03/16 12:41:18;;;;;;;3.30;1.10;;;9.30;76.20;;;;;;5052915;28;20403;-70
2023/03/16 12:43:54;;;;;;;1.57;1.20;;;9.30;78.30;;;;;;5050267;28;20427;-70
2023/03/16 12:46:42;;;;;;;2.60;1.20;;;9.20;77.30;;;;;;5050742;28;20424;-70
2023/03/16 12:49:08;;;;;;;2.10;1.17;;;9.30;77.30;;;;;;5033179;28;20517;-70
2023/03/16 12:51:41;;;;;;;2.57;1.20;;;9.30;78.60;;;;;;5050693;28;20479;-69
2023/03/16 12:54:19;;;;;;;1.33;1.10;;;9.40;79.10;;;;;;5053044;28;20790;-69
2023/03/16 12:56:47;;;;;;;3.90;2.57;;;9.50;78.30;;;;;;5056728;28;20417;-69
2023/03/16 12:59:18;;;;;;;3.13;1.37;;;9.50;78.80;;;;;;5054635;28;20399;-69
2023/03/16 13:01:47;;;;;;;3.10;1.30;;;9.60;81.20;;;;;;5054059;28;20489;-69
2023/03/16 13:04:15;;;;;;;3.23;1.20;;;9.60;82.20;;;;;;5054246;28;20459;-70
2023/03/16 13:07:00;;;;;;;1.50;1.40;;;9.50;84.40;;;;;;5053753;28;20881;-70
2023/03/16 13:09:30;;;;;;;2.50;1.07;;;9.60;81.90;;;;;;5059159;28;20426;-69
2023/03/16 13:11:56;;;;;;;1.47;0.90;;;9.60;76.50;;;;;;5054449;28;20525;-69
2023/03/16 13:14:41;;;;;;;3.03;1.47;;;9.60;73.90;;;;;;5036299;28;20511;-69
2023/03/16 13:17:15;;;;;;;1.70;1.13;;;9.50;70.10;;;;;;5060386;28;20172;-69
2023/03/16 13:19:59;;;;;;;1.60;1.30;;;9.40;70.70;;;;;;5065141;28;20410;-70